sensor_id;sensor_type;location;lat;lon;timestamp;P1;durP1;ratioP1;P2;durP2;ratioP2
55913;SDS011;58179;48.776;9.124;2023-02-07T00:00:12;147.70;;;43.63;;
55913;SDS011;58179;48.776;9.124;2023-02-07T00:02:41;149.00;;;43.83;;
55913;SDS011;58179;48.776;9.124;2023-02-07T00:05:07;140.95;;;41.72;;
55913;SDS011;58179;48.776;9.124;2023-02-07T00:07:33;148.00;;;42.25;;
55913;SDS011;58179;48.776;9.124;2023-02-07T00:09:59;132.00;;;38.95;;
55913;SDS011;58179;48.776;9.124;2023-02-07T00:12:25;122.10;;;39.80;;
55913;SDS011;58179;48.776;9.124;2023-02-07T00:14:51;117.63;;;38.83;;
55913;SDS011;58179;48.776;9.124;2023-02-07T00:17:18;139.85;;;41.40;;
55913;SDS011;58179;48.776;9.124;2023-02-07T00:19:44;137.40;;;39.00;;
55913;SDS011;58179;48.776;9.124;2023-02-07T00:22:10;146.38;;;42.35;;
55913;SDS011;58179;48.776;9.124;2023-02-07T00:24:36;135.40;;;42.67;;
55913;SDS011;58179;48.776;9.124;2023-02-07T00:27:02;129.32;;;41.33;;
55913;SDS011;58179;48.776;9.124;2023-02-07T00:29:27;144.93;;;42.38;;
55913;SDS011;58179;48.776;9.124;2023-02-07T00:31:53;149.03;;;43.10;;
55913;SDS011;58179;48.776;9.124;2023-02-07T00:34:21;132.82;;;40.92;;
55913;SDS011;58179;48.776;9.124;2023-02-07T00:36:47;136.00;;;42.00;;
55913;SDS011;58179;48.776;9.124;2023-02-07T00:39:14;123.15;;;40.83;;
55913;SDS011;58179;48.776;9.124;2023-02-07T00:41:41;128.57;;;42.85;;
55913;SDS011;58179;48.776;9.124;2023-02-07T00:44:09;134.18;;;43.15;;
55913;SDS011;58179;48.776;9.124;2023-02-07T00:46:35;134.23;;;42.65;;
55913;SDS011;58179;48.776;9.124;2023-02-07T00:49:02;135.70;;;43.20;;
55913;SDS011;58179;48.776;9.124;2023-02-07T00:51:30;131.68;;;42.65;;
55913;SDS011;58179;48.776;9.124;2023-02-07T00:53:57;138.03;;;42.70;;
55913;SDS011;58179;48.776;9.124;2023-02-07T00:56:25;133.15;;;42.72;;
55913;SDS011;58179;48.776;9.124;2023-02-07T00:58:52;141.07;;;44.83;;
55913;SDS011;58179;48.776;9.124;2023-02-07T01:01:18;136.73;;;46.83;;
55913;SDS011;58179;48.776;9.124;2023-02-07T01:03:45;144.93;;;46.88;;
55913;SDS011;58179;48.776;9.124;2023-02-07T01:06:11;173.75;;;52.10;;
55913;SDS011;58179;48.776;9.124;2023-02-07T01:08:39;150.52;;;49.25;;
55913;SDS011;58179;48.776;9.124;2023-02-07T01:11:07;164.05;;;51.67;;
55913;SDS011;58179;48.776;9.124;2023-02-07T01:13:35;174.07;;;55.30;;
55913;SDS011;58179;48.776;9.124;2023-02-07T01:16:01;178.10;;;55.90;;
55913;SDS011;58179;48.776;9.124;2023-02-07T01:18:28;177.93;;;57.50;;
55913;SDS011;58179;48.776;9.124;2023-02-07T01:20:54;173.27;;;55.40;;
55913;SDS011;58179;48.776;9.124;2023-02-07T01:23:20;180.00;;;58.97;;
55913;SDS011;58179;48.776;9.124;2023-02-07T01:25:47;170.83;;;57.67;;
55913;SDS011;58179;48.776;9.124;2023-02-07T01:28:13;198.05;;;64.25;;
55913;SDS011;58179;48.776;9.124;2023-02-07T01:30:40;197.52;;;65.20;;
55913;SDS011;58179;48.776;9.124;2023-02-07T01:33:07;191.40;;;63.92;;
55913;SDS011;58179;48.776;9.124;2023-02-07T01:35:34;217.80;;;68.53;;
55913;SDS011;58179;48.776;9.124;2023-02-07T01:38:01;183.50;;;62.97;;
55913;SDS011;58179;48.776;9.124;2023-02-07T01:40:27;204.88;;;65.93;;
55913;SDS011;58179;48.776;9.124;2023-02-07T01:42:55;234.52;;;71.47;;
55913;SDS011;58179;48.776;9.124;2023-02-07T01:45:25;226.70;;;70.87;;
55913;SDS011;58179;48.776;9.124;2023-02-07T01:47:54;236.73;;;72.15;;
55913;SDS011;58179;48.776;9.124;2023-02-07T01:50:32;228.35;;;71.00;;
55913;SDS011;58179;48.776;9.124;2023-02-07T01:53:00;258.08;;;75.72;;
55913;SDS011;58179;48.776;9.124;2023-02-07T01:55:29;228.43;;;71.55;;
55913;SDS011;58179;48.776;9.124;2023-02-07T01:58:00;253.70;;;77.32;;
55913;SDS011;58179;48.776;9.124;2023-02-07T02:00:29;224.77;;;73.07;;
55913;SDS011;58179;48.776;9.124;2023-02-07T02:02:55;245.48;;;76.72;;
55913;SDS011;58179;48.776;9.124;2023-02-07T02:05:21;263.75;;;82.22;;
55913;SDS011;58179;48.776;9.124;2023-02-07T02:07:48;257.27;;;81.70;;
55913;SDS011;58179;48.776;9.124;2023-02-07T02:10:15;238.33;;;78.67;;
55913;SDS011;58179;48.776;9.124;2023-02-07T02:12:50;245.98;;;81.13;;
55913;SDS011;58179;48.776;9.124;2023-02-07T02:15:33;231.45;;;79.47;;
55913;SDS011;58179;48.776;9.124;2023-02-07T02:18:12;246.73;;;82.05;;
55913;SDS011;58179;48.776;9.124;2023-02-07T02:21:29;252.00;;;82.20;;
55913;SDS011;58179;48.776;9.124;2023-02-07T02:31:00;250.50;;;85.30;;
55913;SDS011;58179;48.776;9.124;2023-02-07T02:33:46;259.83;;;84.35;;
55913;SDS011;58179;48.776;9.124;2023-02-07T02:36:18;267.65;;;86.63;;
55913;SDS011;58179;48.776;9.124;2023-02-07T02:38:52;278.58;;;88.15;;
55913;SDS011;58179;48.776;9.124;2023-02-07T02:41:27;222.60;;;81.75;;
55913;SDS011;58179;48.776;9.124;2023-02-07T02:43:58;255.68;;;87.18;;
55913;SDS011;58179;48.776;9.124;2023-02-07T02:46:32;267.75;;;90.53;;
55913;SDS011;58179;48.776;9.124;2023-02-07T02:49:02;261.08;;;86.22;;
55913;SDS011;58179;48.776;9.124;2023-02-07T02:51:32;255.00;;;86.90;;
55913;SDS011;58179;48.776;9.124;2023-02-07T02:53:58;269.23;;;87.72;;
55913;SDS011;58179;48.776;9.124;2023-02-07T02:56:29;274.17;;;87.50;;
55913;SDS011;58179;48.776;9.124;2023-02-07T02:59:36;255.45;;;88.97;;
55913;SDS011;58179;48.776;9.124;2023-02-07T03:02:25;270.58;;;89.10;;
55913;SDS011;58179;48.776;9.124;2023-02-07T03:05:10;278.70;;;88.80;;
55913;SDS011;58179;48.776;9.124;2023-02-07T03:07:58;251.43;;;85.05;;
55913;SDS011;58179;48.776;9.124;2023-02-07T03:10:36;212.48;;;82.65;;
55913;SDS011;58179;48.776;9.124;2023-02-07T03:13:13;221.80;;;82.78;;
55913;SDS011;58179;48.776;9.124;2023-02-07T03:15:47;238.47;;;86.53;;
55913;SDS011;58179;48.776;9.124;2023-02-07T03:18:28;205.88;;;79.13;;
55913;SDS011;58179;48.776;9.124;2023-02-07T03:21:07;186.95;;;75.32;;
55913;SDS011;58179;48.776;9.124;2023-02-07T03:23:41;177.80;;;74.90;;
55913;SDS011;58179;48.776;9.124;2023-02-07T03:26:09;162.23;;;71.05;;
55913;SDS011;58179;48.776;9.124;2023-02-07T03:28:35;159.10;;;67.88;;
55913;SDS011;58179;48.776;9.124;2023-02-07T03:31:03;155.82;;;64.15;;
55913;SDS011;58179;48.776;9.124;2023-02-07T03:33:32;162.07;;;68.65;;
55913;SDS011;58179;48.776;9.124;2023-02-07T03:35:59;164.82;;;68.72;;
55913;SDS011;58179;48.776;9.124;2023-02-07T03:38:35;152.02;;;65.82;;
55913;SDS011;58179;48.776;9.124;2023-02-07T03:41:04;160.33;;;67.83;;
55913;SDS011;58179;48.776;9.124;2023-02-07T03:43:35;156.15;;;67.32;;
55913;SDS011;58179;48.776;9.124;2023-02-07T03:46:06;149.13;;;67.72;;
55913;SDS011;58179;48.776;9.124;2023-02-07T03:48:33;144.60;;;65.35;;
55913;SDS011;58179;48.776;9.124;2023-02-07T03:50:58;160.35;;;71.43;;
55913;SDS011;58179;48.776;9.124;2023-02-07T03:53:24;145.15;;;66.35;;
55913;SDS011;58179;48.776;9.124;2023-02-07T03:55:52;146.63;;;68.07;;
55913;SDS011;58179;48.776;9.124;2023-02-07T03:58:18;146.17;;;71.23;;
55913;SDS011;58179;48.776;9.124;2023-02-07T04:00:44;149.23;;;69.82;;
55913;SDS011;58179;48.776;9.124;2023-02-07T04:03:10;144.20;;;68.30;;
55913;SDS011;58179;48.776;9.124;2023-02-07T04:05:36;146.35;;;67.10;;
55913;SDS011;58179;48.776;9.124;2023-02-07T04:08:02;147.07;;;68.93;;
55913;SDS011;58179;48.776;9.124;2023-02-07T04:10:28;148.25;;;70.70;;
55913;SDS011;58179;48.776;9.124;2023-02-07T04:12:55;155.48;;;70.32;;
55913;SDS011;58179;48.776;9.124;2023-02-07T04:15:21;141.77;;;67.43;;
55913;SDS011;58179;48.776;9.124;2023-02-07T04:17:47;133.95;;;65.18;;
55913;SDS011;58179;48.776;9.124;2023-02-07T04:20:13;122.60;;;61.73;;
55913;SDS011;58179;48.776;9.124;2023-02-07T04:22:39;135.18;;;66.75;;
55913;SDS011;58179;48.776;9.124;2023-02-07T04:25:05;128.13;;;63.85;;
55913;SDS011;58179;48.776;9.124;2023-02-07T04:27:31;132.65;;;64.40;;
55913;SDS011;58179;48.776;9.124;2023-02-07T04:29:59;130.38;;;64.50;;
55913;SDS011;58179;48.776;9.124;2023-02-07T04:32:24;123.68;;;61.22;;
55913;SDS011;58179;48.776;9.124;2023-02-07T04:34:50;130.63;;;63.30;;
55913;SDS011;58179;48.776;9.124;2023-02-07T04:37:16;120.18;;;60.53;;
55913;SDS011;58179;48.776;9.124;2023-02-07T04:39:42;142.40;;;65.75;;
55913;SDS011;58179;48.776;9.124;2023-02-07T04:42:08;133.93;;;63.67;;
55913;SDS011;58179;48.776;9.124;2023-02-07T04:44:34;123.38;;;62.88;;
55913;SDS011;58179;48.776;9.124;2023-02-07T04:47:01;123.13;;;61.72;;
55913;SDS011;58179;48.776;9.124;2023-02-07T04:49:27;128.20;;;62.38;;
55913;SDS011;58179;48.776;9.124;2023-02-07T04:51:53;126.28;;;60.35;;
55913;SDS011;58179;48.776;9.124;2023-02-07T04:54:19;121.45;;;61.78;;
55913;SDS011;58179;48.776;9.124;2023-02-07T04:56:45;129.38;;;63.28;;
55913;SDS011;58179;48.776;9.124;2023-02-07T04:59:11;125.50;;;62.90;;
55913;SDS011;58179;48.776;9.124;2023-02-07T05:01:37;127.13;;;64.03;;
55913;SDS011;58179;48.776;9.124;2023-02-07T05:04:07;124.68;;;62.35;;
55913;SDS011;58179;48.776;9.124;2023-02-07T05:06:33;126.57;;;62.15;;
55913;SDS011;58179;48.776;9.124;2023-02-07T05:08:59;119.80;;;60.58;;
55913;SDS011;58179;48.776;9.124;2023-02-07T05:11:25;115.03;;;58.97;;
55913;SDS011;58179;48.776;9.124;2023-02-07T05:13:51;120.65;;;60.90;;
55913;SDS011;58179;48.776;9.124;2023-02-07T05:16:17;111.20;;;58.63;;
55913;SDS011;58179;48.776;9.124;2023-02-07T05:18:43;116.13;;;60.47;;
55913;SDS011;58179;48.776;9.124;2023-02-07T05:21:10;113.55;;;59.83;;
55913;SDS011;58179;48.776;9.124;2023-02-07T05:23:36;109.15;;;57.33;;
55913;SDS011;58179;48.776;9.124;2023-02-07T05:26:02;104.47;;;56.30;;
55913;SDS011;58179;48.776;9.124;2023-02-07T05:28:28;95.25;;;55.15;;
55913;SDS011;58179;48.776;9.124;2023-02-07T05:30:54;101.35;;;53.85;;
55913;SDS011;58179;48.776;9.124;2023-02-07T05:33:20;108.50;;;56.17;;
55913;SDS011;58179;48.776;9.124;2023-02-07T05:35:46;106.28;;;53.83;;
55913;SDS011;58179;48.776;9.124;2023-02-07T05:38:14;102.60;;;55.40;;
55913;SDS011;58179;48.776;9.124;2023-02-07T05:40:41;108.43;;;56.80;;
55913;SDS011;58179;48.776;9.124;2023-02-07T05:43:08;107.82;;;56.50;;
55913;SDS011;58179;48.776;9.124;2023-02-07T05:45:35;112.45;;;57.80;;
55913;SDS011;58179;48.776;9.124;2023-02-07T05:48:01;101.38;;;53.88;;
55913;SDS011;58179;48.776;9.124;2023-02-07T05:50:27;105.18;;;52.83;;
55913;SDS011;58179;48.776;9.124;2023-02-07T05:52:53;99.18;;;54.38;;
55913;SDS011;58179;48.776;9.124;2023-02-07T05:55:20;94.35;;;52.42;;
55913;SDS011;58179;48.776;9.124;2023-02-07T05:57:46;97.57;;;52.05;;
55913;SDS011;58179;48.776;9.124;2023-02-07T06:00:20;93.15;;;51.65;;
55913;SDS011;58179;48.776;9.124;2023-02-07T06:02:46;89.57;;;50.00;;
55913;SDS011;58179;48.776;9.124;2023-02-07T06:05:13;102.90;;;54.78;;
55913;SDS011;58179;48.776;9.124;2023-02-07T06:07:41;94.37;;;52.27;;
55913;SDS011;58179;48.776;9.124;2023-02-07T06:10:08;96.20;;;51.57;;
55913;SDS011;58179;48.776;9.124;2023-02-07T06:12:36;97.80;;;52.55;;
55913;SDS011;58179;48.776;9.124;2023-02-07T06:15:02;96.20;;;50.77;;
55913;SDS011;58179;48.776;9.124;2023-02-07T06:17:28;91.63;;;50.08;;
55913;SDS011;58179;48.776;9.124;2023-02-07T06:19:54;89.93;;;50.00;;
55913;SDS011;58179;48.776;9.124;2023-02-07T06:22:20;85.35;;;48.47;;
55913;SDS011;58179;48.776;9.124;2023-02-07T06:24:47;88.20;;;48.03;;
55913;SDS011;58179;48.776;9.124;2023-02-07T06:27:13;91.65;;;51.45;;
55913;SDS011;58179;48.776;9.124;2023-02-07T06:29:40;87.80;;;48.35;;
55913;SDS011;58179;48.776;9.124;2023-02-07T06:32:06;79.82;;;45.15;;
55913;SDS011;58179;48.776;9.124;2023-02-07T06:34:32;71.93;;;41.42;;
55913;SDS011;58179;48.776;9.124;2023-02-07T06:36:58;72.03;;;41.25;;
55913;SDS011;58179;48.776;9.124;2023-02-07T06:39:24;74.40;;;41.58;;
55913;SDS011;58179;48.776;9.124;2023-02-07T06:41:49;79.07;;;45.10;;
55913;SDS011;58179;48.776;9.124;2023-02-07T06:44:15;80.43;;;45.25;;
55913;SDS011;58179;48.776;9.124;2023-02-07T06:46:43;81.10;;;43.23;;
55913;SDS011;58179;48.776;9.124;2023-02-07T06:49:09;75.25;;;42.15;;
55913;SDS011;58179;48.776;9.124;2023-02-07T06:51:35;78.03;;;46.33;;
55913;SDS011;58179;48.776;9.124;2023-02-07T06:54:01;75.35;;;45.08;;
55913;SDS011;58179;48.776;9.124;2023-02-07T06:56:32;79.63;;;44.97;;
55913;SDS011;58179;48.776;9.124;2023-02-07T06:58:57;77.05;;;43.20;;
55913;SDS011;58179;48.776;9.124;2023-02-07T07:01:23;78.28;;;42.55;;
55913;SDS011;58179;48.776;9.124;2023-02-07T07:03:51;72.78;;;42.88;;
55913;SDS011;58179;48.776;9.124;2023-02-07T07:06:17;70.07;;;38.97;;
55913;SDS011;58179;48.776;9.124;2023-02-07T07:08:42;79.72;;;41.58;;
55913;SDS011;58179;48.776;9.124;2023-02-07T07:11:08;70.90;;;41.27;;
55913;SDS011;58179;48.776;9.124;2023-02-07T07:13:34;68.55;;;38.08;;
55913;SDS011;58179;48.776;9.124;2023-02-07T07:16:01;67.32;;;39.25;;
55913;SDS011;58179;48.776;9.124;2023-02-07T07:18:27;64.93;;;37.83;;
55913;SDS011;58179;48.776;9.124;2023-02-07T07:20:54;75.38;;;41.22;;
55913;SDS011;58179;48.776;9.124;2023-02-07T07:23:21;63.72;;;37.90;;
55913;SDS011;58179;48.776;9.124;2023-02-07T07:25:47;69.10;;;39.55;;
55913;SDS011;58179;48.776;9.124;2023-02-07T07:28:13;74.53;;;41.58;;
55913;SDS011;58179;48.776;9.124;2023-02-07T07:30:39;76.05;;;43.65;;
55913;SDS011;58179;48.776;9.124;2023-02-07T07:33:05;74.43;;;41.17;;
55913;SDS011;58179;48.776;9.124;2023-02-07T07:35:31;67.63;;;41.10;;
55913;SDS011;58179;48.776;9.124;2023-02-07T07:37:59;74.45;;;42.35;;
55913;SDS011;58179;48.776;9.124;2023-02-07T07:40:25;72.18;;;41.28;;
55913;SDS011;58179;48.776;9.124;2023-02-07T07:42:50;72.90;;;40.78;;
55913;SDS011;58179;48.776;9.124;2023-02-07T07:45:16;73.25;;;41.90;;
55913;SDS011;58179;48.776;9.124;2023-02-07T07:47:43;69.38;;;42.05;;
55913;SDS011;58179;48.776;9.124;2023-02-07T07:50:09;70.43;;;41.42;;
55913;SDS011;58179;48.776;9.124;2023-02-07T07:52:35;67.45;;;40.15;;
55913;SDS011;58179;48.776;9.124;2023-02-07T07:55:03;79.25;;;43.25;;
55913;SDS011;58179;48.776;9.124;2023-02-07T07:57:30;74.28;;;44.60;;
55913;SDS011;58179;48.776;9.124;2023-02-07T07:59:56;79.10;;;44.60;;
55913;SDS011;58179;48.776;9.124;2023-02-07T08:02:24;81.57;;;47.00;;
55913;SDS011;58179;48.776;9.124;2023-02-07T08:04:50;77.75;;;44.97;;
55913;SDS011;58179;48.776;9.124;2023-02-07T08:07:16;81.97;;;47.28;;
55913;SDS011;58179;48.776;9.124;2023-02-07T08:09:42;83.65;;;47.83;;
55913;SDS011;58179;48.776;9.124;2023-02-07T08:12:11;79.57;;;45.87;;
55913;SDS011;58179;48.776;9.124;2023-02-07T08:14:37;84.65;;;47.67;;
55913;SDS011;58179;48.776;9.124;2023-02-07T08:17:03;84.50;;;47.00;;
55913;SDS011;58179;48.776;9.124;2023-02-07T08:19:30;80.05;;;46.80;;
55913;SDS011;58179;48.776;9.124;2023-02-07T08:21:56;81.80;;;46.97;;
55913;SDS011;58179;48.776;9.124;2023-02-07T08:24:22;80.35;;;45.65;;
55913;SDS011;58179;48.776;9.124;2023-02-07T08:26:48;83.27;;;47.60;;
55913;SDS011;58179;48.776;9.124;2023-02-07T08:29:15;84.85;;;48.80;;
55913;SDS011;58179;48.776;9.124;2023-02-07T08:31:41;86.80;;;49.30;;
55913;SDS011;58179;48.776;9.124;2023-02-07T08:34:07;92.43;;;52.00;;
55913;SDS011;58179;48.776;9.124;2023-02-07T08:36:36;90.55;;;50.22;;
55913;SDS011;58179;48.776;9.124;2023-02-07T08:39:03;97.90;;;54.05;;
55913;SDS011;58179;48.776;9.124;2023-02-07T08:41:29;92.38;;;51.38;;
55913;SDS011;58179;48.776;9.124;2023-02-07T08:43:55;91.00;;;50.23;;
55913;SDS011;58179;48.776;9.124;2023-02-07T08:46:22;95.30;;;51.58;;
55913;SDS011;58179;48.776;9.124;2023-02-07T08:48:50;87.73;;;50.00;;
55913;SDS011;58179;48.776;9.124;2023-02-07T08:51:16;85.20;;;47.47;;
55913;SDS011;58179;48.776;9.124;2023-02-07T08:53:42;81.38;;;45.42;;
55913;SDS011;58179;48.776;9.124;2023-02-07T08:56:07;76.63;;;43.93;;
55913;SDS011;58179;48.776;9.124;2023-02-07T08:58:33;78.97;;;44.92;;
55913;SDS011;58179;48.776;9.124;2023-02-07T09:00:59;74.60;;;44.17;;
55913;SDS011;58179;48.776;9.124;2023-02-07T09:03:27;77.40;;;43.88;;
55913;SDS011;58179;48.776;9.124;2023-02-07T09:05:55;71.40;;;41.60;;
55913;SDS011;58179;48.776;9.124;2023-02-07T09:08:22;75.70;;;44.03;;
55913;SDS011;58179;48.776;9.124;2023-02-07T09:10:48;83.17;;;45.87;;
55913;SDS011;58179;48.776;9.124;2023-02-07T09:13:14;76.70;;;43.70;;
55913;SDS011;58179;48.776;9.124;2023-02-07T09:15:40;73.68;;;42.42;;
55913;SDS011;58179;48.776;9.124;2023-02-07T09:18:06;68.88;;;40.92;;
55913;SDS011;58179;48.776;9.124;2023-02-07T09:20:33;70.53;;;43.15;;
55913;SDS011;58179;48.776;9.124;2023-02-07T09:22:59;65.90;;;40.13;;
55913;SDS011;58179;48.776;9.124;2023-02-07T09:25:44;60.15;;;37.35;;
55913;SDS011;58179;48.776;9.124;2023-02-07T09:28:11;64.53;;;38.35;;
55913;SDS011;58179;48.776;9.124;2023-02-07T09:30:38;59.08;;;36.70;;
55913;SDS011;58179;48.776;9.124;2023-02-07T09:33:05;61.67;;;37.55;;
55913;SDS011;58179;48.776;9.124;2023-02-07T09:35:36;62.63;;;37.00;;
55913;SDS011;58179;48.776;9.124;2023-02-07T09:38:08;56.67;;;35.50;;
55913;SDS011;58179;48.776;9.124;2023-02-07T09:40:39;54.67;;;33.15;;
55913;SDS011;58179;48.776;9.124;2023-02-07T09:43:09;56.63;;;34.92;;
55913;SDS011;58179;48.776;9.124;2023-02-07T09:45:51;52.00;;;34.15;;
55913;SDS011;58179;48.776;9.124;2023-02-07T09:48:20;49.03;;;33.25;;
55913;SDS011;58179;48.776;9.124;2023-02-07T09:50:54;54.40;;;33.20;;
55913;SDS011;58179;48.776;9.124;2023-02-07T09:53:27;328.63;;;69.47;;
55913;SDS011;58179;48.776;9.124;2023-02-07T09:56:04;1999.90;;;260.20;;
55913;SDS011;58179;48.776;9.124;2023-02-07T09:58:33;1124.50;;;104.72;;
55913;SDS011;58179;48.776;9.124;2023-02-07T10:01:05;1077.60;;;81.93;;
55913;SDS011;58179;48.776;9.124;2023-02-07T10:03:41;304.02;;;41.85;;
55913;SDS011;58179;48.776;9.124;2023-02-07T10:06:22;38.25;;;22.80;;
55913;SDS011;58179;48.776;9.124;2023-02-07T10:08:52;30.63;;;20.90;;
55913;SDS011;58179;48.776;9.124;2023-02-07T10:11:22;24.20;;;16.40;;
55913;SDS011;58179;48.776;9.124;2023-02-07T10:14:13;21.63;;;15.75;;
55913;SDS011;58179;48.776;9.124;2023-02-07T10:16:55;18.67;;;13.23;;
55913;SDS011;58179;48.776;9.124;2023-02-07T10:19:46;20.75;;;13.07;;
55913;SDS011;58179;48.776;9.124;2023-02-07T10:22:24;17.83;;;12.00;;
55913;SDS011;58179;48.776;9.124;2023-02-07T10:25:07;18.33;;;12.50;;
55913;SDS011;58179;48.776;9.124;2023-02-07T10:27:54;19.13;;;12.27;;
55913;SDS011;58179;48.776;9.124;2023-02-07T10:30:33;17.15;;;11.30;;
55913;SDS011;58179;48.776;9.124;2023-02-07T10:33:03;17.75;;;11.63;;
55913;SDS011;58179;48.776;9.124;2023-02-07T10:35:38;19.13;;;11.70;;
55913;SDS011;58179;48.776;9.124;2023-02-07T10:38:10;18.40;;;10.82;;
55913;SDS011;58179;48.776;9.124;2023-02-07T10:40:49;16.58;;;10.45;;
55913;SDS011;58179;48.776;9.124;2023-02-07T10:43:21;17.50;;;10.68;;
55913;SDS011;58179;48.776;9.124;2023-02-07T10:45:53;17.45;;;10.50;;
55913;SDS011;58179;48.776;9.124;2023-02-07T10:48:24;17.95;;;11.10;;
55913;SDS011;58179;48.776;9.124;2023-02-07T10:50:52;15.85;;;9.98;;
55913;SDS011;58179;48.776;9.124;2023-02-07T10:56:15;17.10;;;11.50;;
55913;SDS011;58179;48.776;9.124;2023-02-07T10:58:44;15.32;;;10.45;;
55913;SDS011;58179;48.776;9.124;2023-02-07T11:01:15;13.90;;;9.85;;
55913;SDS011;58179;48.776;9.124;2023-02-07T11:03:44;14.25;;;9.60;;
55913;SDS011;58179;48.776;9.124;2023-02-07T11:06:12;16.33;;;10.57;;
55913;SDS011;58179;48.776;9.124;2023-02-07T11:08:49;15.93;;;10.23;;
55913;SDS011;58179;48.776;9.124;2023-02-07T11:11:23;13.57;;;9.77;;
55913;SDS011;58179;48.776;9.124;2023-02-07T11:13:53;16.17;;;11.07;;
55913;SDS011;58179;48.776;9.124;2023-02-07T11:16:19;14.88;;;10.20;;
55913;SDS011;58179;48.776;9.124;2023-02-07T11:18:52;17.63;;;11.32;;
55913;SDS011;58179;48.776;9.124;2023-02-07T11:21:23;17.73;;;10.80;;
55913;SDS011;58179;48.776;9.124;2023-02-07T11:23:55;16.63;;;10.63;;
55913;SDS011;58179;48.776;9.124;2023-02-07T11:26:25;17.08;;;10.70;;
55913;SDS011;58179;48.776;9.124;2023-02-07T11:28:54;16.77;;;10.98;;
55913;SDS011;58179;48.776;9.124;2023-02-07T11:31:36;18.40;;;10.98;;
55913;SDS011;58179;48.776;9.124;2023-02-07T11:34:07;19.35;;;10.85;;
55913;SDS011;58179;48.776;9.124;2023-02-07T11:36:49;15.13;;;9.68;;
55913;SDS011;58179;48.776;9.124;2023-02-07T11:39:21;15.63;;;10.88;;
55913;SDS011;58179;48.776;9.124;2023-02-07T11:41:51;15.15;;;11.05;;
55913;SDS011;58179;48.776;9.124;2023-02-07T11:44:22;15.57;;;9.88;;
55913;SDS011;58179;48.776;9.124;2023-02-07T11:46:50;15.63;;;10.90;;
55913;SDS011;58179;48.776;9.124;2023-02-07T11:49:19;15.65;;;10.15;;
55913;SDS011;58179;48.776;9.124;2023-02-07T11:51:50;15.13;;;10.10;;
55913;SDS011;58179;48.776;9.124;2023-02-07T11:54:18;17.48;;;9.52;;
55913;SDS011;58179;48.776;9.124;2023-02-07T11:56:47;13.68;;;9.75;;
55913;SDS011;58179;48.776;9.124;2023-02-07T11:59:16;14.32;;;10.30;;
55913;SDS011;58179;48.776;9.124;2023-02-07T12:01:47;14.98;;;10.75;;
55913;SDS011;58179;48.776;9.124;2023-02-07T12:04:15;19.23;;;12.68;;
55913;SDS011;58179;48.776;9.124;2023-02-07T12:06:45;16.55;;;11.13;;
55913;SDS011;58179;48.776;9.124;2023-02-07T12:09:22;16.77;;;11.50;;
55913;SDS011;58179;48.776;9.124;2023-02-07T12:11:58;18.88;;;12.25;;
55913;SDS011;58179;48.776;9.124;2023-02-07T12:14:28;20.73;;;12.07;;
55913;SDS011;58179;48.776;9.124;2023-02-07T12:17:02;14.68;;;10.68;;
55913;SDS011;58179;48.776;9.124;2023-02-07T12:19:35;18.23;;;13.02;;
55913;SDS011;58179;48.776;9.124;2023-02-07T12:22:17;19.67;;;13.15;;
55913;SDS011;58179;48.776;9.124;2023-02-07T12:24:50;17.30;;;12.90;;
55913;SDS011;58179;48.776;9.124;2023-02-07T12:27:21;25.17;;;14.45;;
55913;SDS011;58179;48.776;9.124;2023-02-07T12:29:55;23.92;;;14.88;;
55913;SDS011;58179;48.776;9.124;2023-02-07T12:32:29;22.03;;;14.70;;
55913;SDS011;58179;48.776;9.124;2023-02-07T12:35:04;21.33;;;15.20;;
55913;SDS011;58179;48.776;9.124;2023-02-07T12:37:44;20.13;;;14.57;;
55913;SDS011;58179;48.776;9.124;2023-02-07T12:40:20;22.48;;;15.90;;
55913;SDS011;58179;48.776;9.124;2023-02-07T12:42:57;22.20;;;16.13;;
55913;SDS011;58179;48.776;9.124;2023-02-07T12:45:32;20.98;;;16.08;;
55913;SDS011;58179;48.776;9.124;2023-02-07T12:48:12;26.17;;;17.95;;
55913;SDS011;58179;48.776;9.124;2023-02-07T12:51:05;22.52;;;16.95;;
55913;SDS011;58179;48.776;9.124;2023-02-07T12:53:46;27.05;;;17.27;;
55913;SDS011;58179;48.776;9.124;2023-02-07T12:56:33;22.65;;;15.52;;
55913;SDS011;58179;48.776;9.124;2023-02-07T12:59:10;22.35;;;16.33;;
55913;SDS011;58179;48.776;9.124;2023-02-07T13:01:45;22.77;;;16.57;;
55913;SDS011;58179;48.776;9.124;2023-02-07T13:07:40;23.88;;;16.08;;
55913;SDS011;58179;48.776;9.124;2023-02-07T13:10:18;23.35;;;15.27;;
55913;SDS011;58179;48.776;9.124;2023-02-07T13:12:56;24.10;;;16.38;;
55913;SDS011;58179;48.776;9.124;2023-02-07T13:15:31;24.02;;;16.10;;
55913;SDS011;58179;48.776;9.124;2023-02-07T13:18:05;21.05;;;15.02;;
55913;SDS011;58179;48.776;9.124;2023-02-07T13:20:40;24.53;;;15.93;;
55913;SDS011;58179;48.776;9.124;2023-02-07T13:23:18;22.42;;;15.27;;
55913;SDS011;58179;48.776;9.124;2023-02-07T13:25:47;21.67;;;15.65;;
55913;SDS011;58179;48.776;9.124;2023-02-07T13:28:20;25.90;;;16.48;;
55913;SDS011;58179;48.776;9.124;2023-02-07T13:30:51;24.35;;;15.57;;
55913;SDS011;58179;48.776;9.124;2023-02-07T13:33:24;24.33;;;16.95;;
55913;SDS011;58179;48.776;9.124;2023-02-07T13:35:55;22.95;;;15.52;;
55913;SDS011;58179;48.776;9.124;2023-02-07T13:38:30;20.52;;;13.80;;
55913;SDS011;58179;48.776;9.124;2023-02-07T13:41:21;21.30;;;14.25;;
55913;SDS011;58179;48.776;9.124;2023-02-07T13:43:59;21.52;;;14.27;;
55913;SDS011;58179;48.776;9.124;2023-02-07T13:46:38;18.83;;;13.13;;
55913;SDS011;58179;48.776;9.124;2023-02-07T13:49:24;17.67;;;12.77;;
55913;SDS011;58179;48.776;9.124;2023-02-07T13:52:08;19.20;;;12.60;;
55913;SDS011;58179;48.776;9.124;2023-02-07T13:54:39;17.55;;;12.82;;
55913;SDS011;58179;48.776;9.124;2023-02-07T13:57:20;15.52;;;11.90;;
55913;SDS011;58179;48.776;9.124;2023-02-07T14:00:23;18.90;;;13.27;;
55913;SDS011;58179;48.776;9.124;2023-02-07T14:02:53;17.48;;;13.55;;
55913;SDS011;58179;48.776;9.124;2023-02-07T14:05:22;19.23;;;14.60;;
55913;SDS011;58179;48.776;9.124;2023-02-07T14:07:56;17.27;;;12.25;;
55913;SDS011;58179;48.776;9.124;2023-02-07T14:10:33;17.65;;;12.10;;
55913;SDS011;58179;48.776;9.124;2023-02-07T14:13:23;14.10;;;11.13;;
55913;SDS011;58179;48.776;9.124;2023-02-07T14:16:05;17.35;;;11.93;;
55913;SDS011;58179;48.776;9.124;2023-02-07T14:18:37;16.25;;;11.98;;
55913;SDS011;58179;48.776;9.124;2023-02-07T14:21:22;16.90;;;13.02;;
55913;SDS011;58179;48.776;9.124;2023-02-07T14:24:01;16.98;;;12.43;;
55913;SDS011;58179;48.776;9.124;2023-02-07T14:27:01;16.30;;;12.52;;
55913;SDS011;58179;48.776;9.124;2023-02-07T14:30:15;17.17;;;11.18;;
55913;SDS011;58179;48.776;9.124;2023-02-07T14:35:46;18.52;;;10.15;;
55913;SDS011;58179;48.776;9.124;2023-02-07T14:38:43;14.37;;;9.03;;
55913;SDS011;58179;48.776;9.124;2023-02-07T14:41:27;12.07;;;8.85;;
55913;SDS011;58179;48.776;9.124;2023-02-07T14:43:57;11.82;;;8.88;;
55913;SDS011;58179;48.776;9.124;2023-02-07T14:46:25;14.40;;;9.15;;
55913;SDS011;58179;48.776;9.124;2023-02-07T14:48:59;11.45;;;8.35;;
55913;SDS011;58179;48.776;9.124;2023-02-07T14:51:29;13.35;;;9.25;;